sensor_id;sensor_type;location;lat;lon;timestamp;temperature;humidity
7000;DHT22;3540;53.242;10.408;2023-06-14T00:00:40;15.20;99.90
7000;DHT22;3540;53.242;10.408;2023-06-14T00:03:09;15.20;99.90
7000;DHT22;3540;53.242;10.408;2023-06-14T00:05:37;15.10;99.90
7000;DHT22;3540;53.242;10.408;2023-06-14T00:08:06;15.10;99.90
7000;DHT22;3540;53.242;10.408;2023-06-14T00:10:34;15.10;99.90
7000;DHT22;3540;53.242;10.408;2023-06-14T00:13:01;15.10;99.90
7000;DHT22;3540;53.242;10.408;2023-06-14T00:15:28;15.00;99.90
7000;DHT22;3540;53.242;10.408;2023-06-14T00:17:53;14.90;99.90
7000;DHT22;3540;53.242;10.408;2023-06-14T00:20:20;14.90;99.90
7000;DHT22;3540;53.242;10.408;2023-06-14T00:22:46;14.80;99.90
7000;DHT22;3540;53.242;10.408;2023-06-14T00:25:12;14.80;99.90
7000;DHT22;3540;53.242;10.408;2023-06-14T00:27:37;14.70;99.90
7000;DHT22;3540;53.242;10.408;2023-06-14T00:30:03;14.70;99.90
7000;DHT22;3540;53.242;10.408;2023-06-14T00:32:29;14.70;99.90
7000;DHT22;3540;53.242;10.408;2023-06-14T00:34:55;14.70;99.90
7000;DHT22;3540;53.242;10.408;2023-06-14T00:37:20;14.70;99.90
7000;DHT22;3540;53.242;10.408;2023-06-14T00:39:46;14.60;99.90
7000;DHT22;3540;53.242;10.408;2023-06-14T00:42:23;14.60;99.90
7000;DHT22;3540;53.242;10.408;2023-06-14T00:44:49;14.60;99.90
7000;DHT22;3540;53.242;10.408;2023-06-14T00:47:14;14.60;99.90
7000;DHT22;3540;53.242;10.408;2023-06-14T00:49:40;14.50;99.90
7000;DHT22;3540;53.242;10.408;2023-06-14T00:52:06;14.50;99.90
7000;DHT22;3540;53.242;10.408;2023-06-14T00:54:32;14.50;99.90
7000;DHT22;3540;53.242;10.408;2023-06-14T00:56:57;14.40;99.90
7000;DHT22;3540;53.242;10.408;2023-06-14T00:59:23;14.40;99.90
7000;DHT22;3540;53.242;10.408;2023-06-14T01:01:49;14.30;99.90
7000;DHT22;3540;53.242;10.408;2023-06-14T01:04:15;14.30;99.90
7000;DHT22;3540;53.242;10.408;2023-06-14T01:09:20;14.30;99.90
7000;DHT22;3540;53.242;10.408;2023-06-14T01:12:03;14.30;99.90
7000;DHT22;3540;53.242;10.408;2023-06-14T01:14:32;14.20;99.90
7000;DHT22;3540;53.242;10.408;2023-06-14T01:16:59;14.20;99.90
7000;DHT22;3540;53.242;10.408;2023-06-14T01:19:26;14.10;99.90
7000;DHT22;3540;53.242;10.408;2023-06-14T01:21:54;14.10;99.90
7000;DHT22;3540;53.242;10.408;2023-06-14T01:24:20;14.10;99.90
7000;DHT22;3540;53.242;10.408;2023-06-14T01:26:52;14.00;99.90
7000;DHT22;3540;53.242;10.408;2023-06-14T01:29:22;14.00;99.90
7000;DHT22;3540;53.242;10.408;2023-06-14T01:31:48;14.00;99.90
7000;DHT22;3540;53.242;10.408;2023-06-14T01:34:14;13.90;99.90
7000;DHT22;3540;53.242;10.408;2023-06-14T01:36:42;13.90;99.90
7000;DHT22;3540;53.242;10.408;2023-06-14T01:39:11;13.90;99.90
7000;DHT22;3540;53.242;10.408;2023-06-14T01:41:39;13.90;99.90
7000;DHT22;3540;53.242;10.408;2023-06-14T01:44:06;13.90;99.90
7000;DHT22;3540;53.242;10.408;2023-06-14T01:46:31;13.80;99.90
7000;DHT22;3540;53.242;10.408;2023-06-14T01:48:57;13.80;99.90
7000;DHT22;3540;53.242;10.408;2023-06-14T01:51:23;13.80;99.90
7000;DHT22;3540;53.242;10.408;2023-06-14T01:53:48;13.80;99.90
7000;DHT22;3540;53.242;10.408;2023-06-14T01:56:14;13.80;99.90
7000;DHT22;3540;53.242;10.408;2023-06-14T01:58:40;13.70;99.90
7000;DHT22;3540;53.242;10.408;2023-06-14T02:01:05;13.70;99.90
7000;DHT22;3540;53.242;10.408;2023-06-14T02:03:32;13.70;99.90
7000;DHT22;3540;53.242;10.408;2023-06-14T02:05:58;13.70;99.90
7000;DHT22;3540;53.242;10.408;2023-06-14T02:08:24;13.70;99.90
7000;DHT22;3540;53.242;10.408;2023-06-14T02:10:49;13.70;99.90
7000;DHT22;3540;53.242;10.408;2023-06-14T02:13:15;13.70;99.90
7000;DHT22;3540;53.242;10.408;2023-06-14T02:15:41;13.70;99.90
7000;DHT22;3540;53.242;10.408;2023-06-14T02:18:09;13.60;99.90
7000;DHT22;3540;53.242;10.408;2023-06-14T02:20:35;13.60;99.90
7000;DHT22;3540;53.242;10.408;2023-06-14T02:23:01;13.50;99.90
7000;DHT22;3540;53.242;10.408;2023-06-14T02:25:26;13.50;99.90
7000;DHT22;3540;53.242;10.408;2023-06-14T02:27:56;13.50;1.00
7000;DHT22;3540;53.242;10.408;2023-06-14T02:30:21;13.40;99.90
7000;DHT22;3540;53.242;10.408;2023-06-14T02:32:47;13.40;99.90
7000;DHT22;3540;53.242;10.408;2023-06-14T02:35:14;13.30;99.90
7000;DHT22;3540;53.242;10.408;2023-06-14T02:37:39;13.30;99.90
7000;DHT22;3540;53.242;10.408;2023-06-14T02:40:05;13.30;99.90
7000;DHT22;3540;53.242;10.408;2023-06-14T02:42:31;13.30;99.90
7000;DHT22;3540;53.242;10.408;2023-06-14T02:44:57;13.30;99.90
7000;DHT22;3540;53.242;10.408;2023-06-14T02:47:22;13.30;99.90
7000;DHT22;3540;53.242;10.408;2023-06-14T02:49:48;13.20;99.90
7000;DHT22;3540;53.242;10.408;2023-06-14T02:52:14;13.20;99.90
7000;DHT22;3540;53.242;10.408;2023-06-14T02:54:39;13.20;99.90
7000;DHT22;3540;53.242;10.408;2023-06-14T02:57:05;13.20;99.90
7000;DHT22;3540;53.242;10.408;2023-06-14T02:59:33;13.10;99.90
7000;DHT22;3540;53.242;10.408;2023-06-14T03:01:59;13.20;99.90
7000;DHT22;3540;53.242;10.408;2023-06-14T03:04:25;13.10;99.90
7000;DHT22;3540;53.242;10.408;2023-06-14T03:06:52;13.10;99.90
7000;DHT22;3540;53.242;10.408;2023-06-14T03:09:19;13.00;99.90
7000;DHT22;3540;53.242;10.408;2023-06-14T03:11:45;13.00;99.90
7000;DHT22;3540;53.242;10.408;2023-06-14T03:14:11;13.00;99.90
7000;DHT22;3540;53.242;10.408;2023-06-14T03:16:38;13.00;99.90
7000;DHT22;3540;53.242;10.408;2023-06-14T03:19:04;13.00;99.90
7000;DHT22;3540;53.242;10.408;2023-06-14T03:21:30;12.90;99.90
7000;DHT22;3540;53.242;10.408;2023-06-14T03:23:55;12.90;99.90
7000;DHT22;3540;53.242;10.408;2023-06-14T03:26:21;12.90;99.90
7000;DHT22;3540;53.242;10.408;2023-06-14T03:28:48;13.00;99.90
7000;DHT22;3540;53.242;10.408;2023-06-14T03:31:16;13.00;99.90
7000;DHT22;3540;53.242;10.408;2023-06-14T03:33:42;13.00;99.30
7000;DHT22;3540;53.242;10.408;2023-06-14T03:36:08;13.10;99.90
7000;DHT22;3540;53.242;10.408;2023-06-14T03:38:34;13.00;96.30
7000;DHT22;3540;53.242;10.408;2023-06-14T03:41:00;13.00;99.90
7000;DHT22;3540;53.242;10.408;2023-06-14T03:43:26;13.00;99.90
7000;DHT22;3540;53.242;10.408;2023-06-14T03:45:52;13.10;99.90
7000;DHT22;3540;53.242;10.408;2023-06-14T03:48:17;13.20;99.90
7000;DHT22;3540;53.242;10.408;2023-06-14T03:50:43;13.00;99.90
7000;DHT22;3540;53.242;10.408;2023-06-14T03:53:10;13.00;99.90
7000;DHT22;3540;53.242;10.408;2023-06-14T03:55:35;12.90;99.90
7000;DHT22;3540;53.242;10.408;2023-06-14T03:58:03;13.00;99.90
7000;DHT22;3540;53.242;10.408;2023-06-14T04:00:29;12.90;99.90
7000;DHT22;3540;53.242;10.408;2023-06-14T04:02:54;13.00;99.90
7000;DHT22;3540;53.242;10.408;2023-06-14T04:05:20;12.90;99.90
7000;DHT22;3540;53.242;10.408;2023-06-14T04:07:46;13.00;99.90
7000;DHT22;3540;53.242;10.408;2023-06-14T04:10:15;13.00;99.90
7000;DHT22;3540;53.242;10.408;2023-06-14T04:12:42;13.20;99.90
7000;DHT22;3540;53.242;10.408;2023-06-14T04:15:08;13.20;99.90
7000;DHT22;3540;53.242;10.408;2023-06-14T04:17:35;13.10;99.90
7000;DHT22;3540;53.242;10.408;2023-06-14T04:20:01;13.10;99.90
7000;DHT22;3540;53.242;10.408;2023-06-14T04:22:29;13.10;99.90
7000;DHT22;3540;53.242;10.408;2023-06-14T04:24:55;13.10;99.90
7000;DHT22;3540;53.242;10.408;2023-06-14T04:27:25;13.20;99.90
7000;DHT22;3540;53.242;10.408;2023-06-14T04:29:55;13.30;99.90
7000;DHT22;3540;53.242;10.408;2023-06-14T04:32:27;13.40;99.90
7000;DHT22;3540;53.242;10.408;2023-06-14T04:34:55;13.30;99.90
7000;DHT22;3540;53.242;10.408;2023-06-14T04:37:23;13.30;99.90
7000;DHT22;3540;53.242;10.408;2023-06-14T04:39:49;13.20;99.90
7000;DHT22;3540;53.242;10.408;2023-06-14T04:42:15;13.30;99.90
7000;DHT22;3540;53.242;10.408;2023-06-14T04:44:42;13.40;99.90
7000;DHT22;3540;53.242;10.408;2023-06-14T04:47:12;13.50;99.90
7000;DHT22;3540;53.242;10.408;2023-06-14T04:49:38;13.50;99.90
7000;DHT22;3540;53.242;10.408;2023-06-14T04:52:06;13.50;99.90
7000;DHT22;3540;53.242;10.408;2023-06-14T04:54:31;13.40;99.90
7000;DHT22;3540;53.242;10.408;2023-06-14T04:56:58;13.50;99.90
7000;DHT22;3540;53.242;10.408;2023-06-14T04:59:24;13.60;99.90
7000;DHT22;3540;53.242;10.408;2023-06-14T05:01:50;13.60;99.90
7000;DHT22;3540;53.242;10.408;2023-06-14T05:04:16;13.70;99.90
7000;DHT22;3540;53.242;10.408;2023-06-14T05:06:43;13.90;99.90
7000;DHT22;3540;53.242;10.408;2023-06-14T05:09:14;14.10;99.90
7000;DHT22;3540;53.242;10.408;2023-06-14T05:11:40;14.30;99.90
7000;DHT22;3540;53.242;10.408;2023-06-14T05:14:07;14.40;99.90
7000;DHT22;3540;53.242;10.408;2023-06-14T05:16:33;14.60;99.90
7000;DHT22;3540;53.242;10.408;2023-06-14T05:18:59;14.60;99.90
7000;DHT22;3540;53.242;10.408;2023-06-14T05:21:26;14.70;71.40
7000;DHT22;3540;53.242;10.408;2023-06-14T05:23:52;14.90;16.40
7000;DHT22;3540;53.242;10.408;2023-06-14T05:26:17;15.00;1.00
7000;DHT22;3540;53.242;10.408;2023-06-14T05:28:43;15.10;1.00
7000;DHT22;3540;53.242;10.408;2023-06-14T05:31:08;15.20;1.00
7000;DHT22;3540;53.242;10.408;2023-06-14T05:33:34;15.30;99.90
7000;DHT22;3540;53.242;10.408;2023-06-14T05:36:00;15.40;1.00
7000;DHT22;3540;53.242;10.408;2023-06-14T05:38:25;15.40;99.90
7000;DHT22;3540;53.242;10.408;2023-06-14T05:40:51;15.50;99.90
7000;DHT22;3540;53.242;10.408;2023-06-14T05:43:16;15.60;1.00
7000;DHT22;3540;53.242;10.408;2023-06-14T05:45:42;15.70;1.00
7000;DHT22;3540;53.242;10.408;2023-06-14T05:48:08;15.70;1.00
7000;DHT22;3540;53.242;10.408;2023-06-14T05:50:33;15.80;1.00
7000;DHT22;3540;53.242;10.408;2023-06-14T05:52:59;15.90;1.00
7000;DHT22;3540;53.242;10.408;2023-06-14T05:55:24;15.80;99.90
7000;DHT22;3540;53.242;10.408;2023-06-14T05:57:50;15.80;1.00
7000;DHT22;3540;53.242;10.408;2023-06-14T06:00:17;15.90;1.00
7000;DHT22;3540;53.242;10.408;2023-06-14T06:02:44;15.80;99.90
7000;DHT22;3540;53.242;10.408;2023-06-14T06:05:11;15.90;99.90
7000;DHT22;3540;53.242;10.408;2023-06-14T06:07:37;16.10;1.00
7000;DHT22;3540;53.242;10.408;2023-06-14T06:10:04;16.10;99.90
7000;DHT22;3540;53.242;10.408;2023-06-14T06:12:30;15.90;99.90
7000;DHT22;3540;53.242;10.408;2023-06-14T06:14:56;16.00;99.90
7000;DHT22;3540;53.242;10.408;2023-06-14T06:17:22;16.10;99.90
7000;DHT22;3540;53.242;10.408;2023-06-14T06:19:48;16.30;99.90
7000;DHT22;3540;53.242;10.408;2023-06-14T06:22:13;16.40;1.00
7000;DHT22;3540;53.242;10.408;2023-06-14T06:24:39;16.60;1.00
7000;DHT22;3540;53.242;10.408;2023-06-14T06:27:05;16.50;99.90
7000;DHT22;3540;53.242;10.408;2023-06-14T06:29:33;16.50;1.00
7000;DHT22;3540;53.242;10.408;2023-06-14T06:31:59;16.60;14.10
7000;DHT22;3540;53.242;10.408;2023-06-14T06:34:24;16.70;1.00
7000;DHT22;3540;53.242;10.408;2023-06-14T06:36:51;16.70;99.90
7000;DHT22;3540;53.242;10.408;2023-06-14T06:39:16;16.90;1.00
7000;DHT22;3540;53.242;10.408;2023-06-14T06:41:42;16.90;99.90
7000;DHT22;3540;53.242;10.408;2023-06-14T06:44:08;17.00;1.00
7000;DHT22;3540;53.242;10.408;2023-06-14T06:46:36;17.00;99.90
7000;DHT22;3540;53.242;10.408;2023-06-14T06:49:05;17.20;1.00
7000;DHT22;3540;53.242;10.408;2023-06-14T06:51:31;17.30;99.90
7000;DHT22;3540;53.242;10.408;2023-06-14T06:53:58;17.40;99.90
7000;DHT22;3540;53.242;10.408;2023-06-14T06:56:23;17.50;1.00
7000;DHT22;3540;53.242;10.408;2023-06-14T06:58:50;17.60;1.00
7000;DHT22;3540;53.242;10.408;2023-06-14T07:01:16;17.70;1.00
7000;DHT22;3540;53.242;10.408;2023-06-14T07:03:42;17.70;99.90
7000;DHT22;3540;53.242;10.408;2023-06-14T07:06:08;17.60;88.80
7000;DHT22;3540;53.242;10.408;2023-06-14T07:08:34;17.40;1.00
7000;DHT22;3540;53.242;10.408;2023-06-14T07:11:01;17.60;1.00
7000;DHT22;3540;53.242;10.408;2023-06-14T07:13:27;17.80;1.00
7000;DHT22;3540;53.242;10.408;2023-06-14T07:15:58;18.00;1.00
7000;DHT22;3540;53.242;10.408;2023-06-14T07:18:25;18.20;99.90
7000;DHT22;3540;53.242;10.408;2023-06-14T07:20:51;18.50;99.90
7000;DHT22;3540;53.242;10.408;2023-06-14T07:23:17;18.70;1.00
7000;DHT22;3540;53.242;10.408;2023-06-14T07:25:43;18.70;1.00
7000;DHT22;3540;53.242;10.408;2023-06-14T07:28:08;18.90;1.00
7000;DHT22;3540;53.242;10.408;2023-06-14T07:30:34;19.00;1.00
7000;DHT22;3540;53.242;10.408;2023-06-14T07:33:00;19.10;99.90
7000;DHT22;3540;53.242;10.408;2023-06-14T07:35:26;19.10;99.90
7000;DHT22;3540;53.242;10.408;2023-06-14T07:37:51;19.20;1.00
7000;DHT22;3540;53.242;10.408;2023-06-14T07:40:17;19.30;99.90
7000;DHT22;3540;53.242;10.408;2023-06-14T07:42:43;19.50;99.90
7000;DHT22;3540;53.242;10.408;2023-06-14T07:45:09;19.60;99.90
7000;DHT22;3540;53.242;10.408;2023-06-14T07:47:34;19.40;1.00
7000;DHT22;3540;53.242;10.408;2023-06-14T07:50:00;19.60;1.00
7000;DHT22;3540;53.242;10.408;2023-06-14T07:52:25;19.80;1.00
7000;DHT22;3540;53.242;10.408;2023-06-14T07:54:51;19.80;1.00
7000;DHT22;3540;53.242;10.408;2023-06-14T07:57:17;20.10;1.00
7000;DHT22;3540;53.242;10.408;2023-06-14T07:59:45;20.40;1.00
7000;DHT22;3540;53.242;10.408;2023-06-14T08:02:11;20.50;1.00
7000;DHT22;3540;53.242;10.408;2023-06-14T08:04:37;20.60;1.00
7000;DHT22;3540;53.242;10.408;2023-06-14T08:07:03;20.60;1.00
7000;DHT22;3540;53.242;10.408;2023-06-14T08:09:29;20.50;99.90
7000;DHT22;3540;53.242;10.408;2023-06-14T08:11:55;20.70;1.00
7000;DHT22;3540;53.242;10.408;2023-06-14T08:14:21;20.60;1.00
7000;DHT22;3540;53.242;10.408;2023-06-14T08:16:47;20.50;1.00
7000;DHT22;3540;53.242;10.408;2023-06-14T08:19:13;19.80;99.90
7000;DHT22;3540;53.242;10.408;2023-06-14T08:21:39;20.30;1.00
7000;DHT22;3540;53.242;10.408;2023-06-14T08:24:05;20.40;1.00
7000;DHT22;3540;53.242;10.408;2023-06-14T08:26:31;20.70;99.90
7000;DHT22;3540;53.242;10.408;2023-06-14T08:28:57;20.70;1.00
7000;DHT22;3540;53.242;10.408;2023-06-14T08:31:23;20.80;1.00
7000;DHT22;3540;53.242;10.408;2023-06-14T08:33:50;21.10;99.90
7000;DHT22;3540;53.242;10.408;2023-06-14T08:36:16;20.90;1.00
7000;DHT22;3540;53.242;10.408;2023-06-14T08:38:41;20.50;99.90
7000;DHT22;3540;53.242;10.408;2023-06-14T08:41:08;20.60;1.00
7000;DHT22;3540;53.242;10.408;2023-06-14T08:43:37;21.10;18.60
7000;DHT22;3540;53.242;10.408;2023-06-14T08:46:04;21.00;1.00
7000;DHT22;3540;53.242;10.408;2023-06-14T08:48:32;20.80;1.00
7000;DHT22;3540;53.242;10.408;2023-06-14T08:51:01;21.10;1.00
7000;DHT22;3540;53.242;10.408;2023-06-14T08:53:30;21.30;1.00
7000;DHT22;3540;53.242;10.408;2023-06-14T08:55:58;21.30;1.00
7000;DHT22;3540;53.242;10.408;2023-06-14T08:58:25;21.10;5.70
7000;DHT22;3540;53.242;10.408;2023-06-14T09:00:51;21.20;1.00
7000;DHT22;3540;53.242;10.408;2023-06-14T09:03:18;21.10;1.00
7000;DHT22;3540;53.242;10.408;2023-06-14T09:05:45;20.90;1.00
7000;DHT22;3540;53.242;10.408;2023-06-14T09:08:12;20.60;1.00
7000;DHT22;3540;53.242;10.408;2023-06-14T09:10:40;20.80;1.00
7000;DHT22;3540;53.242;10.408;2023-06-14T09:13:06;20.80;1.00
7000;DHT22;3540;53.242;10.408;2023-06-14T09:15:32;20.80;1.00
7000;DHT22;3540;53.242;10.408;2023-06-14T09:18:01;20.70;99.90
7000;DHT22;3540;53.242;10.408;2023-06-14T09:20:29;21.00;99.90
7000;DHT22;3540;53.242;10.408;2023-06-14T09:22:55;20.80;1.00
7000;DHT22;3540;53.242;10.408;2023-06-14T09:25:21;21.00;1.00
7000;DHT22;3540;53.242;10.408;2023-06-14T09:27:47;21.40;1.00
7000;DHT22;3540;53.242;10.408;2023-06-14T09:30:13;21.30;1.00
7000;DHT22;3540;53.242;10.408;2023-06-14T09:32:39;21.00;1.00
7000;DHT22;3540;53.242;10.408;2023-06-14T09:35:08;20.70;1.00
7000;DHT22;3540;53.242;10.408;2023-06-14T09:37:35;20.90;1.00
7000;DHT22;3540;53.242;10.408;2023-06-14T09:40:01;21.60;99.90
7000;DHT22;3540;53.242;10.408;2023-06-14T09:42:26;21.40;99.90
7000;DHT22;3540;53.242;10.408;2023-06-14T09:44:54;21.70;99.90
7000;DHT22;3540;53.242;10.408;2023-06-14T09:47:21;21.60;1.00
7000;DHT22;3540;53.242;10.408;2023-06-14T09:49:48;21.30;1.00
7000;DHT22;3540;53.242;10.408;2023-06-14T09:52:20;21.60;99.90
7000;DHT22;3540;53.242;10.408;2023-06-14T09:54:47;21.60;1.00
7000;DHT22;3540;53.242;10.408;2023-06-14T09:57:15;21.80;1.00
7000;DHT22;3540;53.242;10.408;2023-06-14T09:59:43;22.00;1.00
7000;DHT22;3540;53.242;10.408;2023-06-14T10:02:31;22.60;99.90
7000;DHT22;3540;53.242;10.408;2023-06-14T10:05:07;23.10;99.90
7000;DHT22;3540;53.242;10.408;2023-06-14T10:07:54;23.30;99.90
7000;DHT22;3540;53.242;10.408;2023-06-14T10:10:21;23.20;1.00
7000;DHT22;3540;53.242;10.408;2023-06-14T10:12:47;23.30;99.90
7000;DHT22;3540;53.242;10.408;2023-06-14T10:15:20;23.50;99.90
7000;DHT22;3540;53.242;10.408;2023-06-14T10:17:50;23.50;91.90
7000;DHT22;3540;53.242;10.408;2023-06-14T10:20:33;23.50;1.00
7000;DHT22;3540;53.242;10.408;2023-06-14T10:23:18;23.50;1.00
7000;DHT22;3540;53.242;10.408;2023-06-14T10:25:45;23.30;99.90
7000;DHT22;3540;53.242;10.408;2023-06-14T10:31:17;22.70;99.90
7000;DHT22;3540;53.242;10.408;2023-06-14T10:33:50;23.20;99.90
7000;DHT22;3540;53.242;10.408;2023-06-14T10:36:25;23.30;99.90
7000;DHT22;3540;53.242;10.408;2023-06-14T10:39:14;23.40;99.90
7000;DHT22;3540;53.242;10.408;2023-06-14T10:41:41;23.20;99.90
7000;DHT22;3540;53.242;10.408;2023-06-14T10:46:57;23.20;99.90
7000;DHT22;3540;53.242;10.408;2023-06-14T10:49:44;22.80;1.00
7000;DHT22;3540;53.242;10.408;2023-06-14T10:52:15;23.00;99.90
7000;DHT22;3540;53.242;10.408;2023-06-14T10:55:07;22.70;99.90
7000;DHT22;3540;53.242;10.408;2023-06-14T10:57:52;22.80;99.90
7000;DHT22;3540;53.242;10.408;2023-06-14T11:00:25;23.40;1.00
7000;DHT22;3540;53.242;10.408;2023-06-14T11:05:27;23.50;99.90
7000;DHT22;3540;53.242;10.408;2023-06-14T11:08:18;23.70;99.90
7000;DHT22;3540;53.242;10.408;2023-06-14T11:10:49;24.10;99.90
7000;DHT22;3540;53.242;10.408;2023-06-14T11:13:18;24.20;99.90
7000;DHT22;3540;53.242;10.408;2023-06-14T11:15:45;23.90;99.90
7000;DHT22;3540;53.242;10.408;2023-06-14T11:18:15;23.30;99.90
7000;DHT22;3540;53.242;10.408;2023-06-14T11:20:42;23.00;99.90
7000;DHT22;3540;53.242;10.408;2023-06-14T11:23:07;22.80;99.90
7000;DHT22;3540;53.242;10.408;2023-06-14T11:25:33;22.70;99.90
7000;DHT22;3540;53.242;10.408;2023-06-14T11:27:58;22.90;99.90
7000;DHT22;3540;53.242;10.408;2023-06-14T11:30:25;23.60;99.90
7000;DHT22;3540;53.242;10.408;2023-06-14T11:32:51;24.20;99.90
7000;DHT22;3540;53.242;10.408;2023-06-14T11:35:18;24.60;99.90
7000;DHT22;3540;53.242;10.408;2023-06-14T11:37:44;24.70;99.90
7000;DHT22;3540;53.242;10.408;2023-06-14T11:40:11;24.80;86.60
7000;DHT22;3540;53.242;10.408;2023-06-14T11:42:38;24.20;82.00
7000;DHT22;3540;53.242;10.408;2023-06-14T11:45:07;23.70;76.30
7000;DHT22;3540;53.242;10.408;2023-06-14T11:47:33;23.60;75.40
7000;DHT22;3540;53.242;10.408;2023-06-14T11:50:00;24.00;78.20
7000;DHT22;3540;53.242;10.408;2023-06-14T11:52:25;23.90;77.00
7000;DHT22;3540;53.242;10.408;2023-06-14T11:54:51;23.50;73.90
7000;DHT22;3540;53.242;10.408;2023-06-14T11:57:18;22.90;69.00
7000;DHT22;3540;53.242;10.408;2023-06-14T11:59:45;22.90;67.90
7000;DHT22;3540;53.242;10.408;2023-06-14T12:02:14;22.60;64.60
7000;DHT22;3540;53.242;10.408;2023-06-14T12:04:44;22.40;63.20
7000;DHT22;3540;53.242;10.408;2023-06-14T12:07:14;22.40;63.80
7000;DHT22;3540;53.242;10.408;2023-06-14T12:10:03;22.60;69.70
7000;DHT22;3540;53.242;10.408;2023-06-14T12:12:35;22.70;94.30
7000;DHT22;3540;53.242;10.408;2023-06-14T12:15:03;22.70;85.30
7000;DHT22;3540;53.242;10.408;2023-06-14T12:17:34;22.50;97.70
7000;DHT22;3540;53.242;10.408;2023-06-14T12:20:06;22.70;99.90
7000;DHT22;3540;53.242;10.408;2023-06-14T12:22:51;22.80;99.90
7000;DHT22;3540;53.242;10.408;2023-06-14T12:25:35;22.50;99.90
7000;DHT22;3540;53.242;10.408;2023-06-14T12:28:19;22.60;97.00
7000;DHT22;3540;53.242;10.408;2023-06-14T12:30:44;23.30;99.90
7000;DHT22;3540;53.242;10.408;2023-06-14T12:33:10;23.30;91.80
7000;DHT22;3540;53.242;10.408;2023-06-14T12:35:36;23.70;99.30
7000;DHT22;3540;53.242;10.408;2023-06-14T12:38:02;23.70;98.40
7000;DHT22;3540;53.242;10.408;2023-06-14T12:40:29;23.20;87.00
7000;DHT22;3540;53.242;10.408;2023-06-14T12:42:54;23.00;99.90
7000;DHT22;3540;53.242;10.408;2023-06-14T12:45:20;22.90;99.90
7000;DHT22;3540;53.242;10.408;2023-06-14T12:47:45;22.90;89.80
7000;DHT22;3540;53.242;10.408;2023-06-14T12:50:11;22.90;99.90
7000;DHT22;3540;53.242;10.408;2023-06-14T12:52:37;23.20;99.90
7000;DHT22;3540;53.242;10.408;2023-06-14T12:55:04;23.60;99.90
7000;DHT22;3540;53.242;10.408;2023-06-14T12:57:30;24.10;99.90
7000;DHT22;3540;53.242;10.408;2023-06-14T12:59:55;24.20;99.90
7000;DHT22;3540;53.242;10.408;2023-06-14T13:02:21;24.40;99.90
7000;DHT22;3540;53.242;10.408;2023-06-14T13:04:49;24.80;99.90
7000;DHT22;3540;53.242;10.408;2023-06-14T13:07:14;25.20;99.90
7000;DHT22;3540;53.242;10.408;2023-06-14T13:09:40;25.20;99.90
7000;DHT22;3540;53.242;10.408;2023-06-14T13:12:07;24.90;99.90
7000;DHT22;3540;53.242;10.408;2023-06-14T13:14:33;24.40;99.90
7000;DHT22;3540;53.242;10.408;2023-06-14T13:16:58;25.10;99.90
7000;DHT22;3540;53.242;10.408;2023-06-14T13:19:24;25.50;99.90
7000;DHT22;3540;53.242;10.408;2023-06-14T13:21:50;24.50;99.90
7000;DHT22;3540;53.242;10.408;2023-06-14T13:24:16;24.00;96.50
7000;DHT22;3540;53.242;10.408;2023-06-14T13:26:42;24.40;99.90
7000;DHT22;3540;53.242;10.408;2023-06-14T13:29:07;25.50;99.90
7000;DHT22;3540;53.242;10.408;2023-06-14T13:31:33;26.00;99.90
7000;DHT22;3540;53.242;10.408;2023-06-14T13:33:58;24.20;99.90
7000;DHT22;3540;53.242;10.408;2023-06-14T13:36:24;24.00;99.90
7000;DHT22;3540;53.242;10.408;2023-06-14T13:38:50;23.80;99.90
7000;DHT22;3540;53.242;10.408;2023-06-14T13:41:18;23.60;99.90
7000;DHT22;3540;53.242;10.408;2023-06-14T13:43:43;24.00;99.90
7000;DHT22;3540;53.242;10.408;2023-06-14T13:46:09;24.20;99.90
7000;DHT22;3540;53.242;10.408;2023-06-14T13:48:34;24.40;99.90
7000;DHT22;3540;53.242;10.408;2023-06-14T13:51:00;24.60;99.90
7000;DHT22;3540;53.242;10.408;2023-06-14T13:53:26;25.10;99.90
7000;DHT22;3540;53.242;10.408;2023-06-14T13:55:52;25.90;99.90
7000;DHT22;3540;53.242;10.408;2023-06-14T13:58:18;25.60;99.90
7000;DHT22;3540;53.242;10.408;2023-06-14T14:00:44;26.00;99.90
7000;DHT22;3540;53.242;10.408;2023-06-14T14:03:10;25.20;99.90
7000;DHT22;3540;53.242;10.408;2023-06-14T14:05:36;25.40;99.90
7000;DHT22;3540;53.242;10.408;2023-06-14T14:08:02;24.50;99.90
7000;DHT22;3540;53.242;10.408;2023-06-14T14:10:29;24.40;99.90
7000;DHT22;3540;53.242;10.408;2023-06-14T14:12:55;24.60;99.90
7000;DHT22;3540;53.242;10.408;2023-06-14T14:15:20;24.40;99.90
7000;DHT22;3540;53.242;10.408;2023-06-14T14:17:46;23.90;99.90
7000;DHT22;3540;53.242;10.408;2023-06-14T14:20:12;23.60;99.90
7000;DHT22;3540;53.242;10.408;2023-06-14T14:22:44;23.40;99.90
7000;DHT22;3540;53.242;10.408;2023-06-14T14:25:09;23.50;99.90
7000;DHT22;3540;53.242;10.408;2023-06-14T14:27:36;23.60;99.90
7000;DHT22;3540;53.242;10.408;2023-06-14T14:30:03;23.60;99.90
7000;DHT22;3540;53.242;10.408;2023-06-14T14:32:29;24.00;99.90
7000;DHT22;3540;53.242;10.408;2023-06-14T14:34:55;24.60;99.90
7000;DHT22;3540;53.242;10.408;2023-06-14T14:37:20;24.70;99.90
7000;DHT22;3540;53.242;10.408;2023-06-14T14:39:46;24.30;99.90
7000;DHT22;3540;53.242;10.408;2023-06-14T14:42:12;23.60;99.90
7000;DHT22;3540;53.242;10.408;2023-06-14T14:44:38;23.50;99.90
7000;DHT22;3540;53.242;10.408;2023-06-14T14:47:05;23.40;99.90
7000;DHT22;3540;53.242;10.408;2023-06-14T14:49:31;23.50;99.90
7000;DHT22;3540;53.242;10.408;2023-06-14T14:51:57;23.70;99.90
7000;DHT22;3540;53.242;10.408;2023-06-14T14:54:23;23.80;99.90
7000;DHT22;3540;53.242;10.408;2023-06-14T14:56:50;23.80;99.90
7000;DHT22;3540;53.242;10.408;2023-06-14T14:59:16;24.40;99.90
7000;DHT22;3540;53.242;10.408;2023-06-14T15:01:41;24.60;99.90
7000;DHT22;3540;53.242;10.408;2023-06-14T15:04:07;24.50;99.90
7000;DHT22;3540;53.242;10.408;2023-06-14T15:06:32;24.50;99.90
7000;DHT22;3540;53.242;10.408;2023-06-14T15:09:01;25.10;99.90
7000;DHT22;3540;53.242;10.408;2023-06-14T15:11:26;24.20;99.90
7000;DHT22;3540;53.242;10.408;2023-06-14T15:13:52;24.40;99.90
7000;DHT22;3540;53.242;10.408;2023-06-14T15:16:18;24.40;99.90
7000;DHT22;3540;53.242;10.408;2023-06-14T15:18:43;24.00;99.90
7000;DHT22;3540;53.242;10.408;2023-06-14T15:21:09;23.90;99.90
7000;DHT22;3540;53.242;10.408;2023-06-14T15:23:35;23.80;99.90
7000;DHT22;3540;53.242;10.408;2023-06-14T15:26:00;23.60;99.90
7000;DHT22;3540;53.242;10.408;2023-06-14T15:28:26;23.40;99.90
7000;DHT22;3540;53.242;10.408;2023-06-14T15:30:55;23.30;99.90
7000;DHT22;3540;53.242;10.408;2023-06-14T15:33:20;23.20;99.90
7000;DHT22;3540;53.242;10.408;2023-06-14T15:35:46;23.30;99.90
7000;DHT22;3540;53.242;10.408;2023-06-14T15:38:12;23.50;99.90
7000;DHT22;3540;53.242;10.408;2023-06-14T15:40:37;23.90;99.90
7000;DHT22;3540;53.242;10.408;2023-06-14T15:43:03;24.00;99.90
7000;DHT22;3540;53.242;10.408;2023-06-14T15:45:29;24.30;99.90
7000;DHT22;3540;53.242;10.408;2023-06-14T15:47:55;24.80;99.90
7000;DHT22;3540;53.242;10.408;2023-06-14T15:50:21;24.70;99.90
7000;DHT22;3540;53.242;10.408;2023-06-14T15:52:47;24.40;99.90
7000;DHT22;3540;53.242;10.408;2023-06-14T15:55:12;24.20;99.90
7000;DHT22;3540;53.242;10.408;2023-06-14T15:57:38;24.90;99.90
7000;DHT22;3540;53.242;10.408;2023-06-14T16:00:04;25.30;99.90